Beaminster, United Kingdom
Current Conditions -  °F | °C
As of 4:50 PM on Thursday 27 Nov 2014 (Local Time) from EGDY Reporting Station
Haze Haze  
Wind Chill: 43°   Ceiling: 5000
Heat Index: 48°   Visibility: 3mi
Dew Point: 45°   Wind: 13mph
Humidity: 87%   Direction: 90°E
Pressure: 29.5"   Gusts: NA
Location:  50.81°N, 2.74°W
Report Text: EGDY 271650Z 09011KT 5000 HZ FEW006 SCT018 BKN050 09/07 Q0999 WHT
Loading
Personal Weather Stations






























Interactive Weather Map New forecast layout! Learn more

10-Day Weather Forecast

Advertisements
Track Severe Weather on mobile